Time;durP1;ratioP1;P1;durP2;ratioP2;P2;SDS_P1;SDS_P2;PMS_P1;PMS_P2;Temp;Humidity;BMP_temperature;BMP_pressure;BME280_temperature;BME280_humidity;BME280_pressure;Samples;Min_cycle;Max_cycle;Signal;HPM_P1;HPM_P2
2022/03/02 00:00:15;;;;;;;0.30;0.30;;;;;;;;;;5024403;28;20061;-79
2022/03/02 00:02:44;;;;;;;0.10;0.10;;;;;;;;;;5023793;28;20560;-79
2022/03/02 00:05:11;;;;;;;0.32;0.32;;;;;;;;;;5024407;28;20053;-79
2022/03/02 00:07:37;;;;;;;0.20;0.20;;;;;;;;;;5024940;28;20026;-76
2022/03/02 00:10:04;;;;;;;0.10;0.10;;;;;;;;;;5022614;28;20094;-76
2022/03/02 00:12:30;;;;;;;0.30;0.30;;;;;;;;;;5023596;28;20076;-75
2022/03/02 00:14:57;;;;;;;0.25;0.25;;;;;;;;;;5024366;28;20140;-75
2022/03/02 00:17:23;;;;;;;0.13;0.13;;;;;;;;;;5023285;28;20107;-75
2022/03/02 00:19:49;;;;;;;0.10;0.10;;;;;;;;;;5024906;28;20076;-77
2022/03/02 00:22:15;;;;;;;0.20;0.20;;;;;;;;;;5023509;28;20034;-78
2022/03/02 00:24:42;;;;;;;0.15;0.15;;;;;;;;;;5023464;28;20681;-77
2022/03/02 00:27:08;;;;;;;0.10;0.10;;;;;;;;;;5023196;28;20032;-78
2022/03/02 00:29:34;;;;;;;0.13;0.13;;;;;;;;;;5023376;28;20030;-78
2022/03/02 00:32:00;;;;;;;0.30;0.30;;;;;;;;;;5024467;28;20029;-77
2022/03/02 00:34:26;;;;;;;0.10;0.10;;;;;;;;;;5023515;28;20774;-78
2022/03/02 00:36:52;;;;;;;0.15;0.15;;;;;;;;;;5023308;28;20034;-78
2022/03/02 00:39:18;;;;;;;0.20;0.20;;;;;;;;;;5022660;28;20061;-78
2022/03/02 00:41:44;;;;;;;0.10;0.10;;;;;;;;;;5023513;28;20061;-77
2022/03/02 00:44:13;;;;;;;0.20;0.20;;;;;;;;;;5023432;28;20037;-76
2022/03/02 00:46:41;;;;;;;0.10;0.10;;;;;;;;;;5023056;28;20040;-77
2022/03/02 00:49:07;;;;;;;0.10;0.10;;;;;;;;;;5022521;28;20029;-76
2022/03/02 00:51:33;;;;;;;0.40;0.40;;;;;;;;;;5023075;28;20695;-77
2022/03/02 00:53:59;;;;;;;0.10;0.10;;;;;;;;;;5023069;28;20280;-76
2022/03/02 00:56:25;;;;;;;0.20;0.20;;;;;;;;;;5022689;28;20026;-76
2022/03/02 00:58:51;;;;;;;0.10;0.10;;;;;;;;;;5023009;28;20057;-76
2022/03/02 01:01:17;;;;;;;0.10;0.10;;;;;;;;;;5022601;28;20773;-77
2022/03/02 01:03:43;;;;;;;0.10;0.10;;;;;;;;;;5022607;28;20022;-77
2022/03/02 01:06:10;;;;;;;0.10;0.10;;;;;;;;;;5023330;28;20120;-77
2022/03/02 01:08:36;;;;;;;0.20;0.20;;;;;;;;;;5022777;28;20025;-77
2022/03/02 01:11:02;;;;;;;0.10;0.10;;;;;;;;;;5023431;28;20606;-77
2022/03/02 01:13:28;;;;;;;0.30;0.30;;;;;;;;;;5023201;28;20402;-77
2022/03/02 01:15:55;;;;;;;0.20;0.20;;;;;;;;;;5020166;28;20031;-77
2022/03/02 01:18:21;;;;;;;0.10;0.10;;;;;;;;;;5022263;28;20033;-77
2022/03/02 01:20:47;;;;;;;0.10;0.10;;;;;;;;;;5022109;28;20284;-75
2022/03/02 01:23:13;;;;;;;0.10;0.10;;;;;;;;;;5021038;28;20083;-75
2022/03/02 01:25:39;;;;;;;0.20;0.20;;;;;;;;;;5022306;28;20042;-75
2022/03/02 01:28:05;;;;;;;0.10;0.10;;;;;;;;;;5020678;28;20029;-77
2022/03/02 01:30:31;;;;;;;0.20;0.20;;;;;;;;;;5022275;28;20629;-77
2022/03/02 01:32:57;;;;;;;0.10;0.10;;;;;;;;;;5022594;28;20029;-76
2022/03/02 01:35:23;;;;;;;0.20;0.20;;;;;;;;;;5022857;28;20037;-76
2022/03/02 01:37:50;;;;;;;0.73;0.17;;;;;;;;;;5023551;28;20108;-76
2022/03/02 01:40:17;;;;;;;0.52;0.52;;;;;;;;;;5023026;28;20075;-77
2022/03/02 01:42:45;;;;;;;0.20;0.20;;;;;;;;;;5022662;28;20570;-77
2022/03/02 01:45:12;;;;;;;0.10;0.10;;;;;;;;;;5022441;28;20041;-77
2022/03/02 01:47:37;;;;;;;;;;;;;;;;;;5023048;28;20941;-77
2022/03/02 01:50:05;;;;;;;0.10;0.10;;;;;;;;;;5021643;28;19913;-76
2022/03/02 01:52:31;;;;;;;0.10;0.10;;;;;;;;;;5022600;28;21077;-77
2022/03/02 01:54:57;;;;;;;0.13;0.13;;;;;;;;;;5022405;28;20029;-76
2022/03/02 01:57:23;;;;;;;0.20;0.20;;;;;;;;;;5021997;28;20041;-76
2022/03/02 01:59:50;;;;;;;0.10;0.10;;;;;;;;;;5021776;28;20065;-75
2022/03/02 02:02:16;;;;;;;0.10;0.10;;;;;;;;;;5022495;28;20038;-76
2022/03/02 02:04:42;;;;;;;0.10;0.10;;;;;;;;;;5018991;28;20037;-75
2022/03/02 02:07:09;;;;;;;1.83;0.47;;;;;;;;;;5022256;28;20029;-78
2022/03/02 02:09:35;;;;;;;0.10;0.10;;;;;;;;;;5023813;28;20064;-78
2022/03/02 02:12:01;;;;;;;0.10;0.10;;;;;;;;;;5028346;28;20254;-78
2022/03/02 02:14:27;;;;;;;0.10;0.10;;;;;;;;;;5029326;28;20489;-79
2022/03/02 02:16:53;;;;;;;0.10;0.10;;;;;;;;;;5022815;28;20021;-79
2022/03/02 02:19:19;;;;;;;0.17;0.17;;;;;;;;;;5022153;28;20038;-79
2022/03/02 02:21:48;;;;;;;0.10;0.10;;;;;;;;;;5021765;28;20144;-79
2022/03/02 02:24:17;;;;;;;0.88;0.40;;;;;;;;;;5021785;28;20103;-79
2022/03/02 02:26:43;;;;;;;0.40;0.40;;;;;;;;;;5025701;28;20501;-80
2022/03/02 02:29:10;;;;;;;1.35;0.50;;;;;;;;;;5022008;28;20033;-79
2022/03/02 02:31:36;;;;;;;0.10;0.10;;;;;;;;;;5022790;28;20111;-78
2022/03/02 02:34:02;;;;;;;0.45;0.45;;;;;;;;;;5021975;28;20588;-78
2022/03/02 02:36:28;;;;;;;0.10;0.10;;;;;;;;;;5021546;28;20069;-78
2022/03/02 02:38:55;;;;;;;0.10;0.10;;;;;;;;;;5021125;28;20472;-78
2022/03/02 02:41:21;;;;;;;0.10;0.10;;;;;;;;;;5019839;28;20036;-78
2022/03/02 02:43:47;;;;;;;0.15;0.15;;;;;;;;;;5031886;28;20111;-78
2022/03/02 02:46:13;;;;;;;0.43;0.43;;;;;;;;;;5023547;28;20935;-79
2022/03/02 02:48:40;;;;;;;0.20;0.20;;;;;;;;;;5021733;28;20025;-78
2022/03/02 02:51:06;;;;;;;0.17;0.17;;;;;;;;;;5021104;28;20137;-78
2022/03/02 02:53:33;;;;;;;0.10;0.10;;;;;;;;;;5022176;28;20468;-79
2022/03/02 02:55:59;;;;;;;0.25;0.25;;;;;;;;;;5018061;28;20036;-79
2022/03/02 02:58:25;;;;;;;0.20;0.20;;;;;;;;;;5021979;28;20042;-79
2022/03/02 03:00:51;;;;;;;0.10;0.10;;;;;;;;;;5022019;28;20108;-79
2022/03/02 03:03:17;;;;;;;0.20;0.20;;;;;;;;;;5025176;28;20029;-79
2022/03/02 03:05:47;;;;;;;0.13;0.13;;;;;;;;;;5025584;28;20037;-79
2022/03/02 03:08:13;;;;;;;0.20;0.20;;;;;;;;;;5024921;28;20030;-79
2022/03/02 03:10:41;;;;;;;0.10;0.10;;;;;;;;;;5025767;28;20040;-79
2022/03/02 03:13:08;;;;;;;0.10;0.10;;;;;;;;;;5024539;28;20044;-78
2022/03/02 03:15:34;;;;;;;0.30;0.30;;;;;;;;;;5020631;28;20025;-78
2022/03/02 03:18:00;;;;;;;;;;;;;;;;;;5028053;28;20095;-78
2022/03/02 03:20:27;;;;;;;0.10;0.10;;;;;;;;;;5020687;28;19913;-77
2022/03/02 03:22:54;;;;;;;1.65;0.95;;;;;;;;;;5020657;28;20112;-78
2022/03/02 03:25:20;;;;;;;0.10;0.10;;;;;;;;;;5023609;28;20132;-77
2022/03/02 03:27:46;;;;;;;0.28;0.28;;;;;;;;;;5023438;28;20033;-77
2022/03/02 03:30:14;;;;;;;0.10;0.10;;;;;;;;;;5024039;28;20029;-77
2022/03/02 03:32:40;;;;;;;0.10;0.10;;;;;;;;;;5024512;28;20131;-78
2022/03/02 03:35:07;;;;;;;0.10;0.10;;;;;;;;;;5025015;28;20040;-77
2022/03/02 03:37:33;;;;;;;;;;;;;;;;;;5025477;28;20264;-78
2022/03/02 03:39:59;;;;;;;0.13;0.13;;;;;;;;;;5024056;28;19920;-78
2022/03/02 03:42:25;;;;;;;0.40;0.40;;;;;;;;;;5024262;28;20032;-78
2022/03/02 03:44:51;;;;;;;0.20;0.20;;;;;;;;;;5024363;28;20045;-78
2022/03/02 03:47:18;;;;;;;0.10;0.10;;;;;;;;;;5023890;28;20612;-79
2022/03/02 03:49:44;;;;;;;0.17;0.17;;;;;;;;;;5022400;28;20029;-79
2022/03/02 03:52:10;;;;;;;0.10;0.10;;;;;;;;;;5022202;28;20098;-79
2022/03/02 03:54:36;;;;;;;0.15;0.15;;;;;;;;;;5024090;28;20501;-79
2022/03/02 03:57:03;;;;;;;4.25;1.00;;;;;;;;;;5024181;28;20030;-79
2022/03/02 03:59:29;;;;;;;0.10;0.10;;;;;;;;;;5024211;28;20072;-79
2022/03/02 04:01:55;;;;;;;0.10;0.10;;;;;;;;;;5024363;28;20029;-79
2022/03/02 04:04:21;;;;;;;0.40;0.40;;;;;;;;;;5024529;28;20045;-79
2022/03/02 04:06:47;;;;;;;1.20;0.85;;;;;;;;;;5024271;28;20044;-79
2022/03/02 04:09:13;;;;;;;0.43;0.43;;;;;;;;;;5024069;28;20378;-79
2022/03/02 04:11:39;;;;;;;0.20;0.20;;;;;;;;;;5023887;28;20026;-79
2022/03/02 04:14:05;;;;;;;0.20;0.20;;;;;;;;;;5023369;28;20284;-79
2022/03/02 04:16:31;;;;;;;0.10;0.10;;;;;;;;;;5024250;28;20045;-79
2022/03/02 04:18:57;;;;;;;0.10;0.10;;;;;;;;;;5024625;28;20033;-79
2022/03/02 04:21:23;;;;;;;0.10;0.10;;;;;;;;;;5023404;28;20033;-79
2022/03/02 04:23:49;;;;;;;0.10;0.10;;;;;;;;;;5023829;28;20021;-79
2022/03/02 04:26:16;;;;;;;0.10;0.10;;;;;;;;;;5021872;28;20037;-80
2022/03/02 04:28:42;;;;;;;0.20;0.20;;;;;;;;;;5024251;28;20030;-79
2022/03/02 04:31:08;;;;;;;0.10;0.10;;;;;;;;;;5023160;28;20043;-79
2022/03/02 04:33:34;;;;;;;0.30;0.30;;;;;;;;;;5023748;28;20076;-77
2022/03/02 04:36:00;;;;;;;0.10;0.10;;;;;;;;;;5023926;28;20083;-79
2022/03/02 04:38:26;;;;;;;0.10;0.10;;;;;;;;;;5022343;28;20422;-81
2022/03/02 04:40:52;;;;;;;0.20;0.20;;;;;;;;;;5021942;28;20036;-80
2022/03/02 04:43:18;;;;;;;0.10;0.10;;;;;;;;;;5023714;28;20123;-81
2022/03/02 04:45:44;;;;;;;0.10;0.10;;;;;;;;;;5023735;28;20416;-81
2022/03/02 04:48:10;;;;;;;0.10;0.10;;;;;;;;;;5023967;28;20433;-80
2022/03/02 04:50:37;;;;;;;0.10;0.10;;;;;;;;;;5022387;28;20422;-78
2022/03/02 04:53:03;;;;;;;0.30;0.30;;;;;;;;;;5022003;28;20033;-83
2022/03/02 04:55:30;;;;;;;0.20;0.20;;;;;;;;;;5023096;28;20029;-80
2022/03/02 04:57:57;;;;;;;0.10;0.10;;;;;;;;;;5023075;28;20217;-81
2022/03/02 05:00:23;;;;;;;;;;;;;;;;;;5024007;28;20048;-81
2022/03/02 05:02:50;;;;;;;0.55;0.55;;;;;;;;;;5022767;28;20315;-82
2022/03/02 05:05:17;;;;;;;0.10;0.10;;;;;;;;;;5021353;28;20048;-81
2022/03/02 05:07:43;;;;;;;;;;;;;;;;;;5023762;28;20033;-82
2022/03/02 05:10:09;;;;;;;0.10;0.10;;;;;;;;;;5023205;28;19913;-82
2022/03/02 05:12:36;;;;;;;0.32;0.32;;;;;;;;;;5023435;28;20030;-82
2022/03/02 05:15:02;;;;;;;0.10;0.10;;;;;;;;;;5022944;28;20576;-82
2022/03/02 05:17:28;;;;;;;0.10;0.10;;;;;;;;;;5025309;28;20429;-83
2022/03/02 05:19:54;;;;;;;0.10;0.10;;;;;;;;;;5022813;28;20045;-82
2022/03/02 05:22:20;;;;;;;0.17;0.17;;;;;;;;;;5022080;28;20041;-82
2022/03/02 05:24:46;;;;;;;0.10;0.10;;;;;;;;;;5022558;28;20542;-83
2022/03/02 05:27:12;;;;;;;0.10;0.10;;;;;;;;;;5022530;28;20029;-82
2022/03/02 05:29:38;;;;;;;0.20;0.20;;;;;;;;;;5021985;28;20033;-81
2022/03/02 05:32:05;;;;;;;0.17;0.17;;;;;;;;;;5022967;28;20041;-79
2022/03/02 05:34:31;;;;;;;1.35;0.40;;;;;;;;;;5022296;28;20358;-79
2022/03/02 05:36:58;;;;;;;0.10;0.10;;;;;;;;;;5022020;28;20048;-79
2022/03/02 05:39:24;;;;;;;;;;;;;;;;;;5022261;28;20033;-81
2022/03/02 05:41:53;;;;;;;0.80;0.80;;;;;;;;;;5021765;28;19978;-81
2022/03/02 05:44:19;;;;;;;1.33;0.52;;;;;;;;;;5022121;28;20524;-81
2022/03/02 05:46:45;;;;;;;0.10;0.10;;;;;;;;;;5022846;28;20037;-78
2022/03/02 05:49:13;;;;;;;0.10;0.10;;;;;;;;;;5022037;28;20087;-80
2022/03/02 05:51:39;;;;;;;0.20;0.20;;;;;;;;;;5022260;28;20049;-79
2022/03/02 05:54:05;;;;;;;0.20;0.20;;;;;;;;;;5022874;28;20027;-82
2022/03/02 05:56:32;;;;;;;0.35;0.35;;;;;;;;;;5022550;28;20544;-82
2022/03/02 05:58:58;;;;;;;0.15;0.15;;;;;;;;;;5021287;28;20057;-81
2022/03/02 06:01:24;;;;;;;0.10;0.10;;;;;;;;;;5022526;28;20068;-79
2022/03/02 06:03:51;;;;;;;0.10;0.10;;;;;;;;;;5022296;28;20104;-86
2022/03/02 06:06:17;;;;;;;0.63;0.63;;;;;;;;;;5022805;28;20770;-83
2022/03/02 06:08:45;;;;;;;0.32;0.32;;;;;;;;;;5021785;28;20434;-85
2022/03/02 06:11:11;;;;;;;0.10;0.10;;;;;;;;;;5022324;28;20036;-87
2022/03/02 06:13:37;;;;;;;0.10;0.10;;;;;;;;;;5023368;28;20026;-83
2022/03/02 06:16:03;;;;;;;0.10;0.10;;;;;;;;;;5018420;28;20319;-84
2022/03/02 06:18:30;;;;;;;0.20;0.20;;;;;;;;;;5022568;28;20298;-84
2022/03/02 06:21:00;;;;;;;6.00;0.63;;;;;;;;;;5020682;28;20037;-85
2022/03/02 06:23:30;;;;;;;0.30;0.30;;;;;;;;;;5020684;28;20049;-84
2022/03/02 06:25:56;;;;;;;0.15;0.15;;;;;;;;;;5021731;28;20076;-83
2022/03/02 06:28:23;;;;;;;0.22;0.22;;;;;;;;;;5021770;28;20033;-82
2022/03/02 06:30:49;;;;;;;0.17;0.17;;;;;;;;;;5016657;28;20053;-82
2022/03/02 06:33:18;;;;;;;0.10;0.10;;;;;;;;;;5020910;28;20034;-82
2022/03/02 06:35:44;;;;;;;0.20;0.20;;;;;;;;;;5019563;28;20091;-82
2022/03/02 06:38:10;;;;;;;0.30;0.30;;;;;;;;;;5023908;28;20022;-81
2022/03/02 06:40:36;;;;;;;0.47;0.47;;;;;;;;;;5017537;28;20044;-82
2022/03/02 06:43:05;;;;;;;0.10;0.10;;;;;;;;;;5021762;28;20029;-85
2022/03/02 06:45:44;;;;;;;0.10;0.10;;;;;;;;;;5024221;28;20068;-85
2022/03/02 06:48:10;;;;;;;0.10;0.10;;;;;;;;;;5025629;28;20025;-87
2022/03/02 06:50:37;;;;;;;0.20;0.20;;;;;;;;;;5017523;28;20049;-85
2022/03/02 06:53:05;;;;;;;0.10;0.10;;;;;;;;;;5025206;28;20067;-82
2022/03/02 06:55:31;;;;;;;0.10;0.10;;;;;;;;;;5025607;28;20029;-81
2022/03/02 06:58:00;;;;;;;0.10;0.10;;;;;;;;;;5025508;28;20025;-81
2022/03/02 07:00:26;;;;;;;0.13;0.13;;;;;;;;;;5025747;28;20041;-85
2022/03/02 07:03:01;;;;;;;0.10;0.10;;;;;;;;;;5024879;28;20092;-88
2022/03/02 07:05:27;;;;;;;0.20;0.20;;;;;;;;;;5023078;28;20045;-84
2022/03/02 07:07:53;;;;;;;0.20;0.20;;;;;;;;;;5024324;28;20037;-84
2022/03/02 07:10:20;;;;;;;0.10;0.10;;;;;;;;;;5022340;28;20150;-83
2022/03/02 07:12:46;;;;;;;0.10;0.10;;;;;;;;;;5023677;28;20112;-84
2022/03/02 07:15:12;;;;;;;0.10;0.10;;;;;;;;;;5024643;28;20601;-83
2022/03/02 07:17:39;;;;;;;0.30;0.30;;;;;;;;;;5025089;28;20090;-84
2022/03/02 07:20:06;;;;;;;0.10;0.10;;;;;;;;;;5024231;28;20405;-84
2022/03/02 07:22:34;;;;;;;0.20;0.20;;;;;;;;;;5023347;28;20052;-83
2022/03/02 07:25:03;;;;;;;0.10;0.10;;;;;;;;;;5023446;28;20128;-83
2022/03/02 07:27:30;;;;;;;0.52;0.52;;;;;;;;;;5023836;28;20033;-84
2022/03/02 07:29:56;;;;;;;0.10;0.10;;;;;;;;;;5021453;28;20401;-84
2022/03/02 07:32:23;;;;;;;0.10;0.10;;;;;;;;;;5021277;28;20560;-85
2022/03/02 07:34:49;;;;;;;;;;;;;;;;;;5023283;28;20908;-87
2022/03/02 07:37:16;;;;;;;0.32;0.30;;;;;;;;;;5022873;28;19909;-85
2022/03/02 07:39:42;;;;;;;;;;;;;;;;;;5021159;28;20041;-83
2022/03/02 07:42:08;;;;;;;0.10;0.10;;;;;;;;;;5019796;28;19934;-86
2022/03/02 07:44:34;;;;;;;0.10;0.10;;;;;;;;;;5021880;28;20045;-83
2022/03/02 07:47:00;;;;;;;0.30;0.30;;;;;;;;;;5024345;28;20029;-83
2022/03/02 07:49:26;;;;;;;0.00;0.00;;;;;;;;;;5021273;28;20496;-83
2022/03/02 07:51:53;;;;;;;0.10;0.10;;;;;;;;;;5023179;28;20779;-83
2022/03/02 07:54:21;;;;;;;0.20;0.20;;;;;;;;;;5021792;28;20033;-83
2022/03/02 07:56:48;;;;;;;0.10;0.10;;;;;;;;;;5021832;28;20026;-84
2022/03/02 07:59:16;;;;;;;0.20;0.20;;;;;;;;;;5019427;28;20049;-83
2022/03/02 08:01:42;;;;;;;1.17;0.30;;;;;;;;;;5024182;28;20040;-84
2022/03/02 08:04:09;;;;;;;0.20;0.20;;;;;;;;;;5020896;28;20037;-83
2022/03/02 08:06:35;;;;;;;0.20;0.20;;;;;;;;;;5021086;28;20075;-81
2022/03/02 08:09:03;;;;;;;1.95;0.50;;;;;;;;;;5020218;28;20028;-80
2022/03/02 08:11:30;;;;;;;0.20;0.20;;;;;;;;;;5019103;28;20029;-81
2022/03/02 08:13:57;;;;;;;0.10;0.10;;;;;;;;;;5024202;28;20450;-81
2022/03/02 08:16:23;;;;;;;;;;;;;;;;;;5021764;28;20685;-81
2022/03/02 08:18:49;;;;;;;0.08;0.08;;;;;;;;;;5020146;28;19917;-81
2022/03/02 08:21:16;;;;;;;0.32;0.32;;;;;;;;;;5018827;28;20402;-80
2022/03/02 08:23:44;;;;;;;0.10;0.10;;;;;;;;;;5018999;28;20119;-81
2022/03/02 08:26:12;;;;;;;0.10;0.10;;;;;;;;;;5020381;28;20146;-81
2022/03/02 08:28:41;;;;;;;0.20;0.20;;;;;;;;;;5023502;28;20026;-82
2022/03/02 08:31:07;;;;;;;0.22;0.22;;;;;;;;;;5021583;28;20026;-81
2022/03/02 08:33:35;;;;;;;0.13;0.13;;;;;;;;;;5019245;28;20517;-80
2022/03/02 08:36:01;;;;;;;0.20;0.20;;;;;;;;;;5022675;28;20874;-81
2022/03/02 08:38:28;;;;;;;0.20;0.20;;;;;;;;;;5018245;28;20401;-79
2022/03/02 08:40:55;;;;;;;0.10;0.10;;;;;;;;;;5019353;28;20124;-80
2022/03/02 08:43:21;;;;;;;0.10;0.10;;;;;;;;;;5019122;28;20500;-80
2022/03/02 08:45:51;;;;;;;0.10;0.10;;;;;;;;;;5020319;28;20599;-80
2022/03/02 08:48:18;;;;;;;0.20;0.20;;;;;;;;;;5022537;28;20029;-81
2022/03/02 08:50:45;;;;;;;0.60;0.60;;;;;;;;;;5023047;28;20065;-80
2022/03/02 08:53:13;;;;;;;0.85;0.85;;;;;;;;;;5022071;28;20032;-80
2022/03/02 08:55:40;;;;;;;0.70;0.70;;;;;;;;;;5021394;28;20053;-80
2022/03/02 08:58:06;;;;;;;0.50;0.50;;;;;;;;;;5022798;28;20049;-80
2022/03/02 09:00:32;;;;;;;0.40;0.40;;;;;;;;;;5022226;28;20060;-80
2022/03/02 09:02:59;;;;;;;0.50;0.50;;;;;;;;;;5020960;28;20037;-80
2022/03/02 09:05:25;;;;;;;;;;;;;;;;;;5023912;28;20092;-81
2022/03/02 09:07:51;;;;;;;0.30;0.30;;;;;;;;;;5020534;28;19929;-82
2022/03/02 09:10:17;;;;;;;0.30;0.30;;;;;;;;;;5020100;28;20025;-91
2022/03/02 09:12:44;;;;;;;0.20;0.20;;;;;;;;;;5023939;28;20028;-93
2022/03/02 09:15:10;;;;;;;0.30;0.30;;;;;;;;;;5024536;28;20043;-93
2022/03/02 09:17:36;;;;;;;0.28;0.28;;;;;;;;;;5020423;28;20182;-84
2022/03/02 09:20:04;;;;;;;0.20;0.20;;;;;;;;;;5021794;28;20029;-84
2022/03/02 09:22:31;;;;;;;0.30;0.30;;;;;;;;;;5022260;28;20041;-84
2022/03/02 09:24:57;;;;;;;0.30;0.30;;;;;;;;;;5022528;28;20060;-83
2022/03/02 09:27:27;;;;;;;1.77;0.40;;;;;;;;;;5023017;28;20029;-83
2022/03/02 09:29:54;;;;;;;0.20;0.20;;;;;;;;;;5022965;28;20029;-84
2022/03/02 09:32:20;;;;;;;0.30;0.30;;;;;;;;;;5023219;28;20393;-84
2022/03/02 09:34:48;;;;;;;0.23;0.23;;;;;;;;;;5036850;28;20033;-83
2022/03/02 09:37:15;;;;;;;0.30;0.30;;;;;;;;;;5025131;28;20268;-83
2022/03/02 09:39:41;;;;;;;0.30;0.30;;;;;;;;;;5022133;28;20044;-84
2022/03/02 09:42:11;;;;;;;0.20;0.20;;;;;;;;;;5018807;28;20038;-84
2022/03/02 09:44:42;;;;;;;0.30;0.30;;;;;;;;;;5015941;28;20682;-83
2022/03/02 09:47:11;;;;;;;0.30;0.30;;;;;;;;;;5021815;28;20037;-84
2022/03/02 09:49:37;;;;;;;0.20;0.20;;;;;;;;;;5021536;28;20100;-83
2022/03/02 09:52:03;;;;;;;0.23;0.23;;;;;;;;;;5021434;28;20140;-83
2022/03/02 09:54:31;;;;;;;0.30;0.30;;;;;;;;;;5021213;28;20594;-82
2022/03/02 09:56:58;;;;;;;0.22;0.22;;;;;;;;;;5020543;28;20112;-82
2022/03/02 09:59:24;;;;;;;;;;;;;;;;;;5020396;28;20547;-82
2022/03/02 10:01:51;;;;;;;0.30;0.30;;;;;;;;;;5020275;28;19913;-78
2022/03/02 10:04:22;;;;;;;0.30;0.30;;;;;;;;;;5020357;28;20029;-78
2022/03/02 10:06:50;;;;;;;0.30;0.30;;;;;;;;;;5020070;28;20099;-79
2022/03/02 10:09:19;;;;;;;0.20;0.20;;;;;;;;;;5018356;28;20022;-78
2022/03/02 10:11:45;;;;;;;0.30;0.30;;;;;;;;;;5022115;28;20048;-79
2022/03/02 10:14:11;;;;;;;0.30;0.30;;;;;;;;;;5026844;28;20029;-78
2022/03/02 10:16:43;;;;;;;0.20;0.20;;;;;;;;;;5026071;28;20025;-78
2022/03/02 10:19:15;;;;;;;0.20;0.20;;;;;;;;;;5029131;28;20081;-78
2022/03/02 10:21:42;;;;;;;0.30;0.30;;;;;;;;;;5026256;28;20044;-78
2022/03/02 10:24:13;;;;;;;0.32;0.32;;;;;;;;;;5026491;28;20029;-79
2022/03/02 10:27:02;;;;;;;0.30;0.30;;;;;;;;;;5011289;28;20627;-78
2022/03/02 10:29:35;;;;;;;0.22;0.22;;;;;;;;;;5026226;28;20154;-78
2022/03/02 10:32:08;;;;;;;0.30;0.30;;;;;;;;;;5022426;28;20817;-77
2022/03/02 10:34:38;;;;;;;0.20;0.20;;;;;;;;;;5025503;28;20064;-78
2022/03/02 10:37:24;;;;;;;0.30;0.30;;;;;;;;;;5026034;28;20137;-78
2022/03/02 10:40:06;;;;;;;0.30;0.30;;;;;;;;;;5025694;28;20033;-78
2022/03/02 10:42:36;;;;;;;0.28;0.28;;;;;;;;;;5025771;28;20041;-78
2022/03/02 10:45:05;;;;;;;0.30;0.30;;;;;;;;;;5025487;28;20044;-79
2022/03/02 10:47:33;;;;;;;0.30;0.30;;;;;;;;;;5025910;28;20025;-79
2022/03/02 10:50:00;;;;;;;0.30;0.30;;;;;;;;;;5026324;28;20172;-78
2022/03/02 10:52:26;;;;;;;0.30;0.30;;;;;;;;;;5025810;28;20030;-78
2022/03/02 10:54:54;;;;;;;0.30;0.30;;;;;;;;;;5025974;28;20104;-79
2022/03/02 10:57:23;;;;;;;0.30;0.30;;;;;;;;;;5025776;28;20129;-78
2022/03/02 10:59:52;;;;;;;0.20;0.20;;;;;;;;;;5021270;28;20104;-78
2022/03/02 11:02:21;;;;;;;0.40;0.40;;;;;;;;;;5025922;28;20029;-78
2022/03/02 11:04:48;;;;;;;0.55;0.55;;;;;;;;;;5024291;28;20033;-79
2022/03/02 11:07:16;;;;;;;0.95;0.95;;;;;;;;;;5022910;28;20099;-78
2022/03/02 11:09:43;;;;;;;0.40;0.40;;;;;;;;;;5025346;28;20552;-78
2022/03/02 11:12:09;;;;;;;0.40;0.40;;;;;;;;;;5025066;28;20609;-78
2022/03/02 11:14:35;;;;;;;0.30;0.30;;;;;;;;;;5023125;28;20041;-79
2022/03/02 11:17:14;;;;;;;0.50;0.50;;;;;;;;;;5025288;28;20108;-78
2022/03/02 11:19:47;;;;;;;0.40;0.40;;;;;;;;;;5024008;28;20422;-78
2022/03/02 11:22:14;;;;;;;0.30;0.30;;;;;;;;;;5022967;28;20042;-79
2022/03/02 11:24:41;;;;;;;;;;;;;;;;;;5022499;28;20029;-78
2022/03/02 11:27:07;;;;;;;0.30;0.30;;;;;;;;;;5023669;28;20397;-79
2022/03/02 11:29:33;;;;;;;0.40;0.40;;;;;;;;;;5021225;28;20452;-79
2022/03/02 11:32:11;;;;;;;0.30;0.30;;;;;;;;;;5022390;28;20051;-79
2022/03/02 11:34:43;;;;;;;0.30;0.30;;;;;;;;;;5022919;28;20048;-79
2022/03/02 11:37:09;;;;;;;0.20;0.20;;;;;;;;;;5022717;28;20775;-79
2022/03/02 11:39:42;;;;;;;0.40;0.40;;;;;;;;;;5023704;28;20036;-79
2022/03/02 11:42:09;;;;;;;0.30;0.30;;;;;;;;;;5021833;28;20036;-79
2022/03/02 11:44:40;;;;;;;0.40;0.40;;;;;;;;;;5021888;28;20037;-80
2022/03/02 11:47:08;;;;;;;0.30;0.30;;;;;;;;;;5022362;28;20037;-79
2022/03/02 11:49:38;;;;;;;0.30;0.30;;;;;;;;;;5023438;28;20052;-79
2022/03/02 11:52:06;;;;;;;0.40;0.40;;;;;;;;;;5023747;28;20033;-79
2022/03/02 11:54:39;;;;;;;0.30;0.30;;;;;;;;;;5024103;28;20044;-79
2022/03/02 11:57:05;;;;;;;0.30;0.30;;;;;;;;;;5023667;28;20578;-79
2022/03/02 11:59:35;;;;;;;0.30;0.30;;;;;;;;;;5021577;28;20099;-79
2022/03/02 12:02:01;;;;;;;0.40;0.40;;;;;;;;;;5022898;28;20044;-79
2022/03/02 12:04:28;;;;;;;0.35;0.35;;;;;;;;;;5023230;28;20049;-79
2022/03/02 12:06:55;;;;;;;0.30;0.30;;;;;;;;;;5023510;28;20064;-79
2022/03/02 12:09:33;;;;;;;0.38;0.38;;;;;;;;;;5021417;28;20064;-79
2022/03/02 12:12:06;;;;;;;0.40;0.40;;;;;;;;;;5023593;28;20037;-79
2022/03/02 12:14:46;;;;;;;0.30;0.30;;;;;;;;;;5021997;28;20057;-77
2022/03/02 12:17:13;;;;;;;0.40;0.40;;;;;;;;;;5027862;28;20036;-78
2022/03/02 12:19:39;;;;;;;0.40;0.40;;;;;;;;;;5022954;28;20040;-79
2022/03/02 12:22:06;;;;;;;0.30;0.30;;;;;;;;;;5022920;28;20033;-79
2022/03/02 12:24:32;;;;;;;;;;;;;;;;;;5022001;28;20522;-79
2022/03/02 12:27:05;;;;;;;0.32;0.32;;;;;;;;;;5021105;28;20031;-79
2022/03/02 12:29:32;;;;;;;0.35;0.35;;;;;;;;;;5021447;28;20041;-79
2022/03/02 12:32:07;;;;;;;0.40;0.40;;;;;;;;;;5022690;28;20033;-79
2022/03/02 12:34:43;;;;;;;0.30;0.30;;;;;;;;;;5022178;28;20116;-79
2022/03/02 12:37:10;;;;;;;0.30;0.30;;;;;;;;;;5023232;28;20037;-78
2022/03/02 12:39:36;;;;;;;0.40;0.40;;;;;;;;;;5021231;28;20835;-78
2022/03/02 12:42:07;;;;;;;0.30;0.30;;;;;;;;;;5023209;28;20025;-80
2022/03/02 12:44:35;;;;;;;0.30;0.30;;;;;;;;;;5020797;28;20136;-79
2022/03/02 12:47:03;;;;;;;4.53;4.35;;;;;;;;;;5020962;28;20060;-78
2022/03/02 12:49:30;;;;;;;0.17;0.17;;;;;;;;;;5019776;28;20951;-80
2022/03/02 12:51:57;;;;;;;0.20;0.20;;;;;;;;;;5019548;28;20095;-78
2022/03/02 12:54:23;;;;;;;0.22;0.22;;;;;;;;;;5023333;28;20033;-79
2022/03/02 12:56:49;;;;;;;;;;;;;;;;;;5020933;28;20574;-78
2022/03/02 12:59:17;;;;;;;0.40;0.40;;;;;;;;;;5019378;28;19972;-79
2022/03/02 13:01:44;;;;;;;0.50;0.50;;;;;;;;;;5022506;28;20516;-79
2022/03/02 13:04:11;;;;;;;;;;;;;;;;;;5023396;28;20037;-78
2022/03/02 13:06:38;;;;;;;0.40;0.40;;;;;;;;;;5023465;28;20059;-81
2022/03/02 13:09:07;;;;;;;0.50;0.50;;;;;;;;;;5019151;28;20029;-82
2022/03/02 13:11:33;;;;;;;0.40;0.40;;;;;;;;;;5023128;28;20779;-82
2022/03/02 13:14:00;;;;;;;0.40;0.40;;;;;;;;;;5023731;28;20083;-82
2022/03/02 13:16:27;;;;;;;0.30;0.30;;;;;;;;;;5022928;28;20048;-82
2022/03/02 13:18:54;;;;;;;0.45;0.45;;;;;;;;;;5025590;28;20025;-82
2022/03/02 13:21:22;;;;;;;0.30;0.30;;;;;;;;;;5023217;28;20112;-82
2022/03/02 13:24:24;;;;;;;0.40;0.40;;;;;;;;;;5023053;28;20030;-82
2022/03/02 13:27:07;;;;;;;0.30;0.30;;;;;;;;;;4945869;28;20042;-82
2022/03/02 13:29:50;;;;;;;0.40;0.40;;;;;;;;;;4960957;28;20046;-81
2022/03/02 13:32:16;;;;;;;0.45;0.45;;;;;;;;;;4958867;28;20131;-82
2022/03/02 13:35:01;;;;;;;0.40;0.40;;;;;;;;;;4958037;28;20046;-82
2022/03/02 13:37:47;;;;;;;0.40;0.40;;;;;;;;;;4957282;28;20030;-82
2022/03/02 13:40:32;;;;;;;0.30;0.30;;;;;;;;;;4957009;28;20034;-82
2022/03/02 13:43:22;;;;;;;0.40;0.40;;;;;;;;;;4960813;28;20034;-81
2022/03/02 13:46:00;;;;;;;0.40;0.40;;;;;;;;;;4961064;28;20093;-81
2022/03/02 13:48:28;;;;;;;0.40;0.40;;;;;;;;;;4957220;28;20039;-82
2022/03/02 13:51:05;;;;;;;0.40;0.40;;;;;;;;;;4959373;28;20050;-82
2022/03/02 13:53:38;;;;;;;0.40;0.40;;;;;;;;;;4945324;28;20505;-81
2022/03/02 13:56:10;;;;;;;0.40;0.40;;;;;;;;;;4962012;28;20086;-82
2022/03/02 13:58:37;;;;;;;0.30;0.30;;;;;;;;;;4957295;28;20058;-82
2022/03/02 14:01:03;;;;;;;;;;;;;;;;;;4996934;28;20037;-82
2022/03/02 14:03:31;;;;;;;0.50;0.50;;;;;;;;;;5022668;28;19917;-81
2022/03/02 14:05:59;;;;;;;0.45;0.45;;;;;;;;;;5022622;28;20161;-82
2022/03/02 14:08:25;;;;;;;0.40;0.40;;;;;;;;;;5022751;28;20748;-82
2022/03/02 14:10:52;;;;;;;0.30;0.30;;;;;;;;;;5023163;28;20535;-81
2022/03/02 14:13:18;;;;;;;0.40;0.40;;;;;;;;;;5023118;28;20092;-82
2022/03/02 14:15:45;;;;;;;0.33;0.33;;;;;;;;;;5023036;28;20378;-82
2022/03/02 14:18:15;;;;;;;0.40;0.40;;;;;;;;;;5025596;28;20275;-82
2022/03/02 14:20:41;;;;;;;0.30;0.30;;;;;;;;;;5022732;28;20084;-81
2022/03/02 14:23:08;;;;;;;0.30;0.30;;;;;;;;;;5023810;28;20025;-82
2022/03/02 14:25:35;;;;;;;0.35;0.35;;;;;;;;;;5022823;28;20049;-82
2022/03/02 14:28:06;;;;;;;0.32;0.32;;;;;;;;;;5022790;28;20029;-81
2022/03/02 14:30:34;;;;;;;0.30;0.30;;;;;;;;;;5022549;28;20448;-81
2022/03/02 14:33:00;;;;;;;0.30;0.30;;;;;;;;;;5023096;28;20051;-81
2022/03/02 14:35:28;;;;;;;0.35;0.35;;;;;;;;;;5022695;28;20030;-81
2022/03/02 14:37:56;;;;;;;0.30;0.30;;;;;;;;;;5022888;28;20798;-82
2022/03/02 14:40:23;;;;;;;0.30;0.30;;;;;;;;;;5022118;28;20037;-82
2022/03/02 14:42:57;;;;;;;0.40;0.40;;;;;;;;;;5022084;28;20138;-81
2022/03/02 14:45:24;;;;;;;0.30;0.30;;;;;;;;;;5022368;28;20460;-82
2022/03/02 14:47:51;;;;;;;0.40;0.40;;;;;;;;;;5022427;28;20040;-82
2022/03/02 14:50:20;;;;;;;0.40;0.40;;;;;;;;;;5022516;28;20026;-82